Time;durP1;ratioP1;P1;durP2;ratioP2;P2;SDS_P1;SDS_P2;PMS_P1;PMS_P2;Temp;Humidity;BMP_temperature;BMP_pressure;BME280_temperature;BME280_humidity;BME280_pressure;Samples;Min_cycle;Max_cycle;Signal;HPM_P1;HPM_P2
2023/09/21 00:00:33;;;;;;;0.00;0.00;;;16.20;99.90;;;;;;5090960;28;20585;-69
2023/09/21 00:02:59;;;;;;;0.00;0.00;;;16.10;99.90;;;;;;5091057;28;20184;-69
2023/09/21 00:05:29;;;;;;;0.10;0.10;;;16.10;99.90;;;;;;5091509;28;20214;-69
2023/09/21 00:07:55;;;;;;;0.00;0.00;;;16.00;99.90;;;;;;5089888;28;20183;-68
2023/09/21 00:10:22;;;;;;;0.00;0.00;;;16.00;99.90;;;;;;5090865;28;20180;-69
2023/09/21 00:12:48;;;;;;;0.00;0.00;;;16.00;99.90;;;;;;5082300;28;20180;-68
2023/09/21 00:15:29;;;;;;;0.00;0.00;;;15.90;99.90;;;;;;5090830;28;20183;-68
2023/09/21 00:17:58;;;;;;;0.00;0.00;;;15.90;99.90;;;;;;5089317;28;20212;-69
2023/09/21 00:20:25;;;;;;;0.00;0.00;;;15.90;99.90;;;;;;5090648;28;20164;-69
2023/09/21 00:22:51;;;;;;;0.00;0.00;;;15.90;99.90;;;;;;5090864;28;20192;-69
2023/09/21 00:25:17;;;;;;;0.00;0.00;;;15.80;99.90;;;;;;5091245;28;20190;-69
2023/09/21 00:27:44;;;;;;;0.00;0.00;;;15.80;99.90;;;;;;5089329;28;20180;-69
2023/09/21 00:30:10;;;;;;;0.10;0.10;;;15.70;99.90;;;;;;5090885;28;20226;-69
2023/09/21 00:32:40;;;;;;;0.10;0.10;;;15.70;99.90;;;;;;5090560;28;20204;-69
2023/09/21 00:35:09;;;;;;;0.00;0.00;;;15.70;99.90;;;;;;5090461;28;20647;-69
2023/09/21 00:37:39;;;;;;;0.00;0.00;;;15.70;99.90;;;;;;5090671;28;20235;-69
2023/09/21 00:40:20;;;;;;;0.00;0.00;;;15.70;99.90;;;;;;5089624;28;20204;-69
2023/09/21 00:42:46;;;;;;;0.00;0.00;;;15.60;99.90;;;;;;5088648;28;20547;-69
2023/09/21 00:45:14;;;;;;;0.00;0.00;;;15.60;99.90;;;;;;5091018;28;20180;-69
2023/09/21 00:47:43;;;;;;;0.00;0.00;;;15.60;99.90;;;;;;5090577;28;20533;-69
2023/09/21 00:50:10;;;;;;;0.00;0.00;;;15.60;99.90;;;;;;5090807;28;20176;-69
2023/09/21 00:52:40;;;;;;;0.00;0.00;;;15.60;99.90;;;;;;5090574;28;20237;-69
2023/09/21 00:55:09;;;;;;;0.00;0.00;;;15.60;99.90;;;;;;5090675;28;20179;-69
2023/09/21 00:57:36;;;;;;;0.00;0.00;;;15.60;99.90;;;;;;5089478;28;20299;-69
2023/09/21 01:00:08;;;;;;;0.00;0.00;;;15.50;99.90;;;;;;5090735;28;20178;-69
2023/09/21 01:02:34;;;;;;;0.00;0.00;;;15.50;99.90;;;;;;5090509;28;20195;-70
2023/09/21 01:05:00;;;;;;;0.00;0.00;;;15.50;99.90;;;;;;5090681;28;20674;-69
2023/09/21 01:07:26;;;;;;;0.00;0.00;;;15.50;99.90;;;;;;5090572;28;20187;-70
2023/09/21 01:09:52;;;;;;;0.00;0.00;;;15.50;99.90;;;;;;5090459;28;20201;-69
2023/09/21 01:12:18;;;;;;;0.00;0.00;;;15.50;99.90;;;;;;5090662;28;20184;-69
2023/09/21 01:14:44;;;;;;;0.00;0.00;;;15.40;99.90;;;;;;5090222;28;20175;-69
2023/09/21 01:17:09;;;;;;;0.00;0.00;;;15.40;99.90;;;;;;5090479;28;20208;-69
2023/09/21 01:19:35;;;;;;;0.00;0.00;;;15.40;99.90;;;;;;5090026;28;20176;-69
2023/09/21 01:22:11;;;;;;;0.00;0.00;;;15.40;99.90;;;;;;5089998;28;20172;-69
2023/09/21 01:24:38;;;;;;;0.00;0.00;;;15.30;99.90;;;;;;5089952;28;20199;-69
2023/09/21 01:27:04;;;;;;;0.00;0.00;;;15.30;99.90;;;;;;5092872;28;20216;-69
2023/09/21 01:29:30;;;;;;;0.00;0.00;;;15.30;99.90;;;;;;5094191;28;20248;-69
2023/09/21 01:31:56;;;;;;;0.00;0.00;;;15.30;99.90;;;;;;5093633;28;20479;-69
2023/09/21 01:34:21;;;;;;;0.00;0.00;;;15.30;99.90;;;;;;5072151;28;20169;-68
2023/09/21 01:36:47;;;;;;;0.00;0.00;;;15.20;99.90;;;;;;5093103;28;20300;-68
2023/09/21 01:39:13;;;;;;;0.00;0.00;;;15.20;99.90;;;;;;5093732;28;20262;-69
2023/09/21 01:41:38;;;;;;;0.00;0.00;;;15.20;99.90;;;;;;5093587;28;20180;-68
2023/09/21 01:44:04;;;;;;;0.00;0.00;;;15.20;99.90;;;;;;5093767;28;20180;-69
2023/09/21 01:46:33;;;;;;;0.00;0.00;;;15.10;99.90;;;;;;5093518;28;20594;-69
2023/09/21 01:48:59;;;;;;;0.00;0.00;;;15.10;99.90;;;;;;5092788;28;20176;-69
2023/09/21 01:51:25;;;;;;;0.00;0.00;;;15.10;99.90;;;;;;5093390;28;20176;-69
2023/09/21 01:53:50;;;;;;;0.00;0.00;;;15.10;99.90;;;;;;5093730;28;20204;-69
2023/09/21 01:56:16;;;;;;;0.00;0.00;;;15.00;99.90;;;;;;5093510;28;20337;-68
2023/09/21 01:58:41;;;;;;;0.00;0.00;;;15.00;99.90;;;;;;5092717;28;20216;-69
2023/09/21 02:01:08;;;;;;;0.00;0.00;;;15.00;99.90;;;;;;5092153;28;20175;-69
2023/09/21 02:03:33;;;;;;;0.00;0.00;;;15.00;99.90;;;;;;5093598;28;20593;-69
2023/09/21 02:06:00;;;;;;;0.00;0.00;;;14.90;99.90;;;;;;5093356;28;20263;-69
2023/09/21 02:08:26;;;;;;;0.00;0.00;;;15.00;99.90;;;;;;5093500;28;20188;-69
2023/09/21 02:10:52;;;;;;;0.00;0.00;;;15.00;99.90;;;;;;5093150;28;20230;-69
2023/09/21 02:13:18;;;;;;;0.00;0.00;;;15.00;99.90;;;;;;5093334;28;20179;-69
2023/09/21 02:15:44;;;;;;;0.00;0.00;;;15.00;99.90;;;;;;5093279;28;20172;-69
2023/09/21 02:18:10;;;;;;;0.00;0.00;;;15.00;99.90;;;;;;5093020;28;20224;-69
2023/09/21 02:20:42;;;;;;;0.00;0.00;;;15.10;99.90;;;;;;5092434;28;20645;-69
2023/09/21 02:23:08;;;;;;;0.00;0.00;;;15.10;99.90;;;;;;5093321;28;20569;-69
2023/09/21 02:25:35;;;;;;;0.10;0.10;;;15.10;99.90;;;;;;5093236;28;20180;-69
2023/09/21 02:28:06;;;;;;;0.00;0.00;;;15.10;99.90;;;;;;5092644;28;20180;-68
2023/09/21 02:30:32;;;;;;;0.00;0.00;;;15.20;99.90;;;;;;5093035;28;20525;-68
2023/09/21 02:32:59;;;;;;;0.00;0.00;;;15.20;99.90;;;;;;5076790;28;20192;-68
2023/09/21 02:35:27;;;;;;;0.00;0.00;;;15.30;99.90;;;;;;5093119;28;20325;-68
2023/09/21 02:37:54;;;;;;;0.05;0.03;;;15.30;99.90;;;;;;5092411;28;20232;-68
2023/09/21 02:40:22;;;;;;;0.00;0.00;;;15.40;99.90;;;;;;5092669;28;20199;-68
2023/09/21 02:42:57;;;;;;;0.00;0.00;;;15.40;99.90;;;;;;5091984;28;20254;-68
2023/09/21 02:45:24;;;;;;;0.00;0.00;;;15.40;99.90;;;;;;5092886;28;20176;-69
2023/09/21 02:47:51;;;;;;;0.00;0.00;;;15.40;99.90;;;;;;5092728;28;20180;-69
2023/09/21 02:50:25;;;;;;;0.00;0.00;;;15.40;99.90;;;;;;5092665;28;20168;-69
2023/09/21 02:52:55;;;;;;;0.10;0.05;;;15.40;99.90;;;;;;5091985;28;20673;-68
2023/09/21 02:55:26;;;;;;;0.00;0.00;;;15.50;99.90;;;;;;5092494;28;20180;-68
2023/09/21 02:58:10;;;;;;;0.00;0.00;;;15.50;99.90;;;;;;5092247;28;20243;-69
2023/09/21 03:00:49;;;;;;;0.03;0.03;;;15.50;99.90;;;;;;5092096;28;20179;-68
2023/09/21 03:03:16;;;;;;;0.00;0.00;;;15.50;99.90;;;;;;5085604;28;20186;-68
2023/09/21 03:05:47;;;;;;;0.00;0.00;;;15.50;99.90;;;;;;5091999;28;20172;-69
2023/09/21 03:08:13;;;;;;;0.00;0.00;;;15.50;99.90;;;;;;5092291;28;20188;-68
2023/09/21 03:10:54;;;;;;;0.00;0.00;;;15.50;99.90;;;;;;5091405;28;20192;-69
2023/09/21 03:13:24;;;;;;;0.00;0.00;;;15.60;99.90;;;;;;5091724;28;20180;-68
2023/09/21 03:15:52;;;;;;;0.00;0.00;;;15.60;99.90;;;;;;5091685;28;20184;-68
2023/09/21 03:18:19;;;;;;;0.00;0.00;;;15.50;99.90;;;;;;5091601;28;20264;-68
2023/09/21 03:20:45;;;;;;;0.00;0.00;;;15.50;99.90;;;;;;5091197;28;20322;-69
2023/09/21 03:23:12;;;;;;;0.00;0.00;;;15.60;99.90;;;;;;5092540;28;20184;-69
2023/09/21 03:25:43;;;;;;;0.00;0.00;;;15.60;99.90;;;;;;5097982;28;20179;-69
2023/09/21 03:28:13;;;;;;;0.00;0.00;;;15.60;99.90;;;;;;5090446;28;20656;-68
2023/09/21 03:30:39;;;;;;;0.00;0.00;;;15.60;99.90;;;;;;5091695;28;20176;-70
2023/09/21 03:33:05;;;;;;;0.00;0.00;;;15.60;99.90;;;;;;5091911;28;20169;-71
2023/09/21 03:35:31;;;;;;;0.00;0.00;;;15.60;99.90;;;;;;5091265;28;20176;-71
2023/09/21 03:37:58;;;;;;;0.00;0.00;;;15.60;99.90;;;;;;5091145;28;20758;-71
2023/09/21 03:40:25;;;;;;;0.00;0.00;;;15.60;99.90;;;;;;5091723;28;20183;-73
2023/09/21 03:42:52;;;;;;;0.00;0.00;;;15.60;99.90;;;;;;5091309;28;20188;-66
2023/09/21 03:45:18;;;;;;;0.00;0.00;;;15.60;99.90;;;;;;5091780;28;20223;-66
2023/09/21 03:47:44;;;;;;;0.00;0.00;;;15.60;99.90;;;;;;5091117;28;20691;-67
2023/09/21 03:50:14;;;;;;;0.00;0.00;;;15.60;99.90;;;;;;5093931;28;20233;-64
2023/09/21 03:52:41;;;;;;;0.00;0.00;;;15.70;99.90;;;;;;5101789;28;20184;-67
2023/09/21 03:55:10;;;;;;;0.00;0.00;;;15.60;99.90;;;;;;5091577;28;20575;-64
2023/09/21 03:57:36;;;;;;;0.00;0.00;;;15.70;99.90;;;;;;5090799;28;20204;-66
2023/09/21 04:00:12;;;;;;;0.00;0.00;;;15.70;99.90;;;;;;5091218;28;20184;-66
2023/09/21 04:02:38;;;;;;;0.00;0.00;;;15.70;99.90;;;;;;5090992;28;20180;-66
2023/09/21 04:05:04;;;;;;;0.00;0.00;;;15.70;99.90;;;;;;5091522;28;20192;-66
2023/09/21 04:07:29;;;;;;;0.00;0.00;;;15.80;99.90;;;;;;5090939;28;20720;-70
2023/09/21 04:09:55;;;;;;;0.00;0.00;;;15.80;99.90;;;;;;5091858;28;20274;-67
2023/09/21 04:12:20;;;;;;;0.00;0.00;;;15.80;99.90;;;;;;5099438;28;20175;-66
2023/09/21 04:14:46;;;;;;;0.00;0.00;;;15.80;99.90;;;;;;5103021;28;20635;-66
2023/09/21 04:17:12;;;;;;;0.00;0.00;;;15.80;99.90;;;;;;5091270;28;20246;-66
2023/09/21 04:19:37;;;;;;;0.00;0.00;;;15.80;99.90;;;;;;5090710;28;20529;-66
2023/09/21 04:22:03;;;;;;;0.00;0.00;;;15.80;99.90;;;;;;5091170;28;20654;-66
2023/09/21 04:24:28;;;;;;;0.00;0.00;;;15.80;99.90;;;;;;5091518;28;20176;-66
2023/09/21 04:26:54;;;;;;;0.00;0.00;;;15.80;99.90;;;;;;5090170;28;20699;-66
2023/09/21 04:29:19;;;;;;;0.00;0.00;;;15.80;99.90;;;;;;5091439;28;20169;-66
2023/09/21 04:31:45;;;;;;;0.10;0.10;;;15.90;99.90;;;;;;5091193;28;20172;-66
2023/09/21 04:34:10;;;;;;;0.00;0.00;;;15.90;99.90;;;;;;5091416;28;20641;-66
2023/09/21 04:36:36;;;;;;;0.00;0.00;;;15.90;99.90;;;;;;5090960;28;20223;-66
2023/09/21 04:39:02;;;;;;;0.00;0.00;;;15.90;99.90;;;;;;5091245;28;20180;-66
2023/09/21 04:41:27;;;;;;;0.00;0.00;;;16.00;99.90;;;;;;5091263;28;20164;-66
2023/09/21 04:43:53;;;;;;;0.00;0.00;;;16.00;99.90;;;;;;5090986;28;20214;-66
2023/09/21 04:46:20;;;;;;;0.00;0.00;;;16.00;99.90;;;;;;5091147;28;20259;-66
2023/09/21 04:48:46;;;;;;;0.00;0.00;;;16.00;99.90;;;;;;5090997;28;20160;-66
2023/09/21 04:51:14;;;;;;;0.00;0.00;;;16.00;99.90;;;;;;5091073;28;20260;-66
2023/09/21 04:53:40;;;;;;;0.10;0.10;;;16.00;99.90;;;;;;5091178;28;20187;-66
2023/09/21 04:56:05;;;;;;;0.00;0.00;;;16.00;99.90;;;;;;5090929;28;20176;-66
2023/09/21 04:58:31;;;;;;;0.00;0.00;;;16.00;99.90;;;;;;5091157;28;20176;-66
2023/09/21 05:00:57;;;;;;;0.10;0.10;;;16.00;99.90;;;;;;5094892;28;20172;-66
2023/09/21 05:03:22;;;;;;;0.00;0.00;;;16.00;99.90;;;;;;5095111;28;20180;-66
2023/09/21 05:05:49;;;;;;;0.00;0.00;;;15.90;99.90;;;;;;5095096;28;20172;-66
2023/09/21 05:08:14;;;;;;;0.00;0.00;;;15.90;99.90;;;;;;5095116;28;20182;-66
2023/09/21 05:10:43;;;;;;;0.00;0.00;;;15.90;99.90;;;;;;5094915;28;20180;-66
2023/09/21 05:13:08;;;;;;;0.00;0.00;;;15.90;99.90;;;;;;5094991;28;20241;-66
2023/09/21 05:15:34;;;;;;;0.00;0.00;;;15.90;99.90;;;;;;5094872;28;20520;-66
2023/09/21 05:18:00;;;;;;;0.00;0.00;;;15.90;99.90;;;;;;5094766;28;20203;-66
2023/09/21 05:20:25;;;;;;;0.47;0.45;;;15.90;99.90;;;;;;5094719;28;20537;-66
2023/09/21 05:22:51;;;;;;;0.00;0.00;;;15.90;99.90;;;;;;5094718;28;20596;-66
2023/09/21 05:25:17;;;;;;;0.00;0.00;;;15.90;99.90;;;;;;5094804;28;20168;-66
2023/09/21 05:27:42;;;;;;;0.00;0.00;;;15.90;99.90;;;;;;5094589;28;20204;-66
2023/09/21 05:30:11;;;;;;;0.00;0.00;;;16.00;99.90;;;;;;5094728;28;20530;-67
2023/09/21 05:32:37;;;;;;;0.00;0.00;;;16.00;99.90;;;;;;5094696;28;20169;-67
2023/09/21 05:35:05;;;;;;;0.00;0.00;;;16.00;99.90;;;;;;5094576;28;20172;-67
2023/09/21 05:37:30;;;;;;;0.00;0.00;;;16.00;99.90;;;;;;5094382;28;20235;-67
2023/09/21 05:39:56;;;;;;;0.00;0.00;;;16.00;99.90;;;;;;5094367;28;20177;-67
2023/09/21 05:42:23;;;;;;;0.00;0.00;;;16.00;99.90;;;;;;5094049;28;20172;-67
2023/09/21 05:44:49;;;;;;;0.00;0.00;;;16.10;99.90;;;;;;5094351;28;20267;-67
2023/09/21 05:47:15;;;;;;;0.15;0.15;;;16.10;99.90;;;;;;5094280;28;20656;-66
2023/09/21 05:49:41;;;;;;;1.13;0.20;;;16.10;99.90;;;;;;5094188;28;20164;-66
2023/09/21 05:52:13;;;;;;;0.00;0.00;;;16.20;99.90;;;;;;5094328;28;20543;-67
2023/09/21 05:54:40;;;;;;;0.00;0.00;;;16.20;99.90;;;;;;5094131;28;20161;-66
2023/09/21 05:57:05;;;;;;;0.00;0.00;;;16.20;99.90;;;;;;5094135;28;20215;-67
2023/09/21 05:59:31;;;;;;;0.00;0.00;;;16.20;99.90;;;;;;5094144;28;20539;-67
2023/09/21 06:02:00;;;;;;;0.00;0.00;;;16.20;99.90;;;;;;5093461;28;20180;-66
2023/09/21 06:04:26;;;;;;;0.00;0.00;;;16.20;99.90;;;;;;5093712;28;20203;-66
2023/09/21 06:06:58;;;;;;;0.00;0.00;;;16.30;99.90;;;;;;5093599;28;20203;-66
2023/09/21 06:09:23;;;;;;;0.00;0.00;;;16.30;99.90;;;;;;5093676;28;20233;-66
2023/09/21 06:11:50;;;;;;;0.00;0.00;;;16.20;99.90;;;;;;5092736;28;20168;-66
2023/09/21 06:14:17;;;;;;;0.03;0.03;;;16.20;99.90;;;;;;5093486;28;20210;-66
2023/09/21 06:16:43;;;;;;;0.00;0.00;;;16.30;99.90;;;;;;5093328;28;20207;-67
2023/09/21 06:19:11;;;;;;;0.00;0.00;;;16.30;99.90;;;;;;5093409;28;20199;-66
2023/09/21 06:21:37;;;;;;;0.00;0.00;;;16.30;99.90;;;;;;5093264;28;20179;-66
2023/09/21 06:24:04;;;;;;;0.00;0.00;;;16.30;99.90;;;;;;5093371;28;20861;-66
2023/09/21 06:26:30;;;;;;;0.00;0.00;;;16.40;99.90;;;;;;5093291;28;20168;-66
2023/09/21 06:28:56;;;;;;;0.00;0.00;;;16.40;99.90;;;;;;5093023;28;20303;-66
2023/09/21 06:31:21;;;;;;;0.00;0.00;;;16.40;99.90;;;;;;5093248;28;20263;-66
2023/09/21 06:33:47;;;;;;;0.00;0.00;;;16.50;99.90;;;;;;5093279;28;20165;-66
2023/09/21 06:36:20;;;;;;;0.00;0.00;;;16.50;99.90;;;;;;5093252;28;20698;-66
2023/09/21 06:38:47;;;;;;;0.10;0.10;;;16.50;99.90;;;;;;5093005;28;20227;-67
2023/09/21 06:41:13;;;;;;;0.00;0.00;;;16.60;99.90;;;;;;5093201;28;20178;-66
2023/09/21 06:43:42;;;;;;;0.00;0.00;;;16.60;99.90;;;;;;5092385;28;20241;-67
2023/09/21 06:46:09;;;;;;;0.00;0.00;;;16.60;99.90;;;;;;5093194;28;20522;-66
2023/09/21 06:48:34;;;;;;;0.10;0.10;;;16.70;99.90;;;;;;5092971;28;20571;-67
2023/09/21 06:51:00;;;;;;;0.00;0.00;;;16.70;99.90;;;;;;5092918;28;20326;-66
2023/09/21 06:53:28;;;;;;;0.00;0.00;;;16.70;99.90;;;;;;5092984;28;20176;-66
2023/09/21 06:55:55;;;;;;;0.00;0.00;;;16.80;99.90;;;;;;5092742;28;20533;-66
2023/09/21 06:58:21;;;;;;;0.00;0.00;;;16.80;99.90;;;;;;5092695;28;20548;-66
2023/09/21 07:00:47;;;;;;;0.00;0.00;;;16.90;99.90;;;;;;5092743;28;20183;-66
2023/09/21 07:03:12;;;;;;;0.00;0.00;;;16.90;99.90;;;;;;5092809;28;20168;-67
2023/09/21 07:05:40;;;;;;;0.13;0.13;;;17.00;99.90;;;;;;5092630;28;20168;-66
2023/09/21 07:08:06;;;;;;;0.00;0.00;;;17.00;99.90;;;;;;5092804;28;20199;-66
2023/09/21 07:10:32;;;;;;;0.00;0.00;;;17.10;99.90;;;;;;5092727;28;20168;-67
2023/09/21 07:12:58;;;;;;;0.00;0.00;;;17.10;99.90;;;;;;5092532;28;20187;-66
2023/09/21 07:15:24;;;;;;;0.00;0.00;;;17.20;99.90;;;;;;5092669;28;20172;-66
2023/09/21 07:17:50;;;;;;;0.00;0.00;;;17.20;99.90;;;;;;5092448;28;20223;-67
2023/09/21 07:20:23;;;;;;;0.00;0.00;;;17.20;99.90;;;;;;5092456;28;20176;-67
2023/09/21 07:22:55;;;;;;;0.00;0.00;;;17.30;99.90;;;;;;5091364;28;20180;-67
2023/09/21 07:25:22;;;;;;;0.00;0.00;;;17.40;99.90;;;;;;5092441;28;20200;-67
2023/09/21 07:27:48;;;;;;;0.00;0.00;;;17.40;99.90;;;;;;5092358;28;20214;-67
2023/09/21 07:30:14;;;;;;;0.00;0.00;;;17.50;99.90;;;;;;5092303;28;20233;-66
2023/09/21 07:32:40;;;;;;;0.00;0.00;;;17.60;99.90;;;;;;5092044;28;20554;-67
2023/09/21 07:35:06;;;;;;;0.00;0.00;;;17.80;99.90;;;;;;5092123;28;20180;-67
2023/09/21 07:37:32;;;;;;;0.00;0.00;;;18.00;99.90;;;;;;5091895;28;20286;-67
2023/09/21 07:40:03;;;;;;;0.00;0.00;;;18.30;99.90;;;;;;5091971;28;20180;-67
2023/09/21 07:42:28;;;;;;;0.00;0.00;;;18.60;99.90;;;;;;5091647;28;20172;-67
2023/09/21 07:44:54;;;;;;;0.00;0.00;;;18.90;99.90;;;;;;5092034;28;20172;-67
2023/09/21 07:47:21;;;;;;;0.00;0.00;;;19.30;99.90;;;;;;5091932;28;20662;-67
2023/09/21 07:49:47;;;;;;;0.17;0.17;;;19.80;99.90;;;;;;5091834;28;20222;-67
2023/09/21 07:52:12;;;;;;;0.00;0.00;;;20.40;99.90;;;;;;5091935;28;20184;-67
2023/09/21 07:54:38;;;;;;;0.00;0.00;;;20.90;99.90;;;;;;5091748;28;20169;-67
2023/09/21 07:57:04;;;;;;;0.00;0.00;;;21.40;99.90;;;;;;5091630;28;20601;-67
2023/09/21 07:59:31;;;;;;;0.00;0.00;;;21.60;99.90;;;;;;5091866;28;20198;-67
2023/09/21 08:01:56;;;;;;;0.00;0.00;;;21.90;99.90;;;;;;5091497;28;20233;-67
2023/09/21 08:04:22;;;;;;;0.00;0.00;;;22.20;99.90;;;;;;5091793;28;20203;-67
2023/09/21 08:06:48;;;;;;;0.00;0.00;;;22.40;99.90;;;;;;5091672;28;20572;-67
2023/09/21 08:09:14;;;;;;;0.00;0.00;;;22.60;99.90;;;;;;5091663;28;20180;-67
2023/09/21 08:11:40;;;;;;;0.00;0.00;;;22.80;99.90;;;;;;5091410;28;20218;-65
2023/09/21 08:14:06;;;;;;;0.38;0.38;;;23.10;99.90;;;;;;5091701;28;20168;-66
2023/09/21 08:16:32;;;;;;;0.00;0.00;;;23.30;99.90;;;;;;5090331;28;20568;-66
2023/09/21 08:18:58;;;;;;;0.00;0.00;;;23.50;99.90;;;;;;5091277;28;20176;-67
2023/09/21 08:21:24;;;;;;;0.00;0.00;;;23.60;99.90;;;;;;5091616;28;20184;-66
2023/09/21 08:23:50;;;;;;;0.00;0.00;;;23.80;99.90;;;;;;5091425;28;20172;-66
2023/09/21 08:26:15;;;;;;;0.00;0.00;;;23.90;99.90;;;;;;5091343;28;20186;-66
2023/09/21 08:28:41;;;;;;;0.00;0.00;;;24.10;99.90;;;;;;5091392;28;20176;-67
2023/09/21 08:31:09;;;;;;;1.50;0.08;;;24.30;99.90;;;;;;5091350;28;20171;-67
2023/09/21 08:33:35;;;;;;;0.00;0.00;;;24.40;99.90;;;;;;5091038;28;20207;-67
2023/09/21 08:36:00;;;;;;;0.00;0.00;;;24.50;99.90;;;;;;5091059;28;20208;-66
2023/09/21 08:38:26;;;;;;;0.00;0.00;;;24.70;99.90;;;;;;5091223;28;20262;-67
2023/09/21 08:40:52;;;;;;;0.00;0.00;;;24.70;99.90;;;;;;5091169;28;20181;-67
2023/09/21 08:43:24;;;;;;;0.00;0.00;;;24.70;99.90;;;;;;5090590;28;20659;-66
2023/09/21 08:45:51;;;;;;;0.00;0.00;;;24.80;99.90;;;;;;5091090;28;20175;-67
2023/09/21 08:48:23;;;;;;;0.00;0.00;;;24.80;99.90;;;;;;5091081;28;20183;-66
2023/09/21 08:50:50;;;;;;;0.00;0.00;;;24.80;99.90;;;;;;5091014;28;20180;-66
2023/09/21 08:53:20;;;;;;;0.00;0.00;;;24.70;99.90;;;;;;5091036;28;20205;-67
2023/09/21 08:55:51;;;;;;;0.00;0.00;;;24.70;99.90;;;;;;5091049;28;20289;-67
2023/09/21 08:58:23;;;;;;;0.00;0.00;;;24.50;99.90;;;;;;5090862;28;20222;-67
2023/09/21 09:00:56;;;;;;;0.00;0.00;;;24.50;99.90;;;;;;5090927;28;20191;-67
2023/09/21 09:03:25;;;;;;;0.00;0.00;;;24.50;99.90;;;;;;5091119;28;20650;-67
2023/09/21 09:05:52;;;;;;;0.10;0.10;;;24.60;99.90;;;;;;5090944;28;20239;-67
2023/09/21 09:08:18;;;;;;;0.00;0.00;;;24.60;99.70;;;;;;5090915;28;20679;-67
2023/09/21 09:10:43;;;;;;;0.00;0.00;;;24.60;99.40;;;;;;5090947;28;20282;-67
2023/09/21 09:13:09;;;;;;;0.00;0.00;;;24.50;99.50;;;;;;5091057;28;20251;-67
2023/09/21 09:15:37;;;;;;;0.00;0.00;;;24.60;99.90;;;;;;5090941;28;20180;-67
2023/09/21 09:18:03;;;;;;;0.00;0.00;;;24.50;99.90;;;;;;5090743;28;20223;-67
2023/09/21 09:20:30;;;;;;;0.00;0.00;;;24.50;99.90;;;;;;5090928;28;20168;-67
2023/09/21 09:22:56;;;;;;;0.00;0.00;;;24.50;99.90;;;;;;5090714;28;20180;-67
2023/09/21 09:25:22;;;;;;;0.00;0.00;;;24.50;99.90;;;;;;5090759;28;20666;-67
2023/09/21 09:27:47;;;;;;;0.00;0.00;;;24.60;99.90;;;;;;5090823;28;20164;-67
2023/09/21 09:30:13;;;;;;;0.00;0.00;;;24.70;99.90;;;;;;5090668;28;20180;-67
2023/09/21 09:32:42;;;;;;;0.00;0.00;;;24.80;99.20;;;;;;5090530;28;20705;-67
2023/09/21 09:35:13;;;;;;;0.00;0.00;;;24.80;98.60;;;;;;5090793;28;20165;-67
2023/09/21 09:37:40;;;;;;;0.00;0.00;;;24.90;98.60;;;;;;5089084;28;20573;-67
2023/09/21 09:40:10;;;;;;;0.05;0.00;;;24.80;98.30;;;;;;5090709;28;20169;-67
2023/09/21 09:42:40;;;;;;;0.00;0.00;;;24.70;98.20;;;;;;5090154;28;20184;-67
2023/09/21 09:45:18;;;;;;;0.00;0.00;;;24.60;98.70;;;;;;5090631;28;20176;-66
2023/09/21 09:47:50;;;;;;;0.00;0.00;;;24.60;98.70;;;;;;5093864;28;20257;-67
2023/09/21 09:50:20;;;;;;;0.00;0.00;;;24.70;98.70;;;;;;5094087;28;20184;-66
2023/09/21 09:52:50;;;;;;;0.00;0.00;;;24.60;98.10;;;;;;5094084;28;20180;-66
2023/09/21 09:55:22;;;;;;;0.00;0.00;;;24.70;98.40;;;;;;5094033;28;20169;-66
2023/09/21 09:57:53;;;;;;;0.00;0.00;;;24.90;98.30;;;;;;5093930;28;20234;-67
2023/09/21 10:00:22;;;;;;;0.00;0.00;;;25.10;98.30;;;;;;5093971;28;20172;-67
2023/09/21 10:02:49;;;;;;;0.00;0.00;;;25.30;98.30;;;;;;5093983;28;20164;-67
2023/09/21 10:05:19;;;;;;;0.00;0.00;;;25.50;98.50;;;;;;5094053;28;20226;-67
2023/09/21 10:07:48;;;;;;;0.00;0.00;;;25.80;98.30;;;;;;5093854;28;20168;-67
2023/09/21 10:10:15;;;;;;;0.00;0.00;;;26.00;97.80;;;;;;5094037;28;20184;-67
2023/09/21 10:12:43;;;;;;;0.00;0.00;;;26.20;97.80;;;;;;5093894;28;20176;-68
2023/09/21 10:15:13;;;;;;;0.00;0.00;;;26.50;97.30;;;;;;5093780;28;20636;-67
2023/09/21 10:17:38;;;;;;;0.00;0.00;;;26.70;96.70;;;;;;5093501;28;20227;-67
2023/09/21 10:20:14;;;;;;;0.00;0.00;;;27.10;96.00;;;;;;5093655;28;20583;-66
2023/09/21 10:22:43;;;;;;;0.00;0.00;;;27.40;95.30;;;;;;5093550;28;20734;-67
2023/09/21 10:25:10;;;;;;;0.00;0.00;;;27.60;94.60;;;;;;5093685;28;20637;-67
2023/09/21 10:27:38;;;;;;;0.00;0.00;;;27.60;94.40;;;;;;5093492;28;20649;-67
2023/09/21 10:30:09;;;;;;;0.00;0.00;;;27.70;94.20;;;;;;5093470;28;20221;-67
2023/09/21 10:32:48;;;;;;;0.00;0.00;;;27.80;93.40;;;;;;5093490;28;20172;-67
2023/09/21 10:35:21;;;;;;;0.00;0.00;;;27.80;92.70;;;;;;5093532;28;20187;-67
2023/09/21 10:37:50;;;;;;;0.00;0.00;;;27.90;92.50;;;;;;5093029;28;20266;-67
2023/09/21 10:40:26;;;;;;;0.00;0.00;;;27.80;92.90;;;;;;5093176;28;20251;-66
2023/09/21 10:42:52;;;;;;;0.00;0.00;;;27.80;92.10;;;;;;5092667;28;20182;-67
2023/09/21 10:45:18;;;;;;;0.00;0.00;;;27.70;91.70;;;;;;5093096;28;20243;-67
2023/09/21 10:47:51;;;;;;;0.00;0.00;;;27.60;91.10;;;;;;5093123;28;20648;-66
2023/09/21 10:50:20;;;;;;;0.00;0.00;;;27.60;91.40;;;;;;5093055;28;20186;-67
2023/09/21 10:52:55;;;;;;;0.00;0.00;;;27.60;90.80;;;;;;5092899;28;20228;-67
2023/09/21 10:55:21;;;;;;;0.00;0.00;;;27.60;90.10;;;;;;5092923;28;20171;-66
2023/09/21 10:57:48;;;;;;;0.00;0.00;;;27.50;90.00;;;;;;5092528;28;20219;-66
2023/09/21 11:00:18;;;;;;;0.00;0.00;;;27.40;91.10;;;;;;5093038;28;20184;-66
2023/09/21 11:02:46;;;;;;;0.00;0.00;;;27.40;89.90;;;;;;5092864;28;20225;-67
2023/09/21 11:05:12;;;;;;;0.00;0.00;;;27.30;90.20;;;;;;5092855;28;20168;-67
2023/09/21 11:07:41;;;;;;;0.00;0.00;;;27.20;90.50;;;;;;5092493;28;20267;-67
2023/09/21 11:10:10;;;;;;;0.00;0.00;;;27.10;90.60;;;;;;5092743;28;20229;-66
2023/09/21 11:12:38;;;;;;;0.00;0.00;;;27.10;89.80;;;;;;5092595;28;20191;-67
2023/09/21 11:15:06;;;;;;;0.00;0.00;;;27.00;89.50;;;;;;5092637;28;20183;-66
2023/09/21 11:17:32;;;;;;;0.00;0.00;;;26.90;90.10;;;;;;5092449;28;20225;-66
2023/09/21 11:19:58;;;;;;;0.00;0.00;;;26.90;90.50;;;;;;5092322;28;20188;-67
2023/09/21 11:22:24;;;;;;;0.00;0.00;;;26.90;90.50;;;;;;5092590;28;20168;-66
2023/09/21 11:24:50;;;;;;;0.00;0.00;;;26.90;90.30;;;;;;5092343;28;20176;-66
2023/09/21 11:27:16;;;;;;;0.00;0.00;;;26.90;90.30;;;;;;5092467;28;20180;-66
2023/09/21 11:29:43;;;;;;;0.00;0.00;;;26.80;88.80;;;;;;5092415;28;20221;-66
2023/09/21 11:32:22;;;;;;;0.00;0.00;;;26.80;89.90;;;;;;5092327;28;20203;-66
2023/09/21 11:34:47;;;;;;;0.00;0.00;;;26.80;90.30;;;;;;5092214;28;20178;-67
2023/09/21 11:37:13;;;;;;;0.00;0.00;;;26.80;91.10;;;;;;5091943;28;20228;-66
2023/09/21 11:39:42;;;;;;;0.20;0.05;;;26.90;91.90;;;;;;5091945;28;20241;-66
2023/09/21 11:42:10;;;;;;;0.00;0.00;;;27.10;91.10;;;;;;5092117;28;20534;-66
2023/09/21 11:44:39;;;;;;;0.00;0.00;;;27.10;90.30;;;;;;5091495;28;20203;-67
2023/09/21 11:47:09;;;;;;;0.00;0.00;;;27.20;90.20;;;;;;5092059;28;20640;-67
2023/09/21 11:49:42;;;;;;;0.00;0.00;;;27.20;90.40;;;;;;5091889;28;20180;-66
2023/09/21 11:52:15;;;;;;;0.00;0.00;;;27.40;90.20;;;;;;5091870;28;20541;-66
2023/09/21 11:54:40;;;;;;;0.00;0.00;;;27.40;88.50;;;;;;5091739;28;20557;-67
2023/09/21 11:57:09;;;;;;;0.00;0.00;;;27.40;88.70;;;;;;5091877;28;20294;-66
2023/09/21 11:59:42;;;;;;;0.00;0.00;;;27.50;84.00;;;;;;5091818;28;20258;-67
2023/09/21 12:02:16;;;;;;;0.00;0.00;;;27.60;84.80;;;;;;5091944;28;20187;-66
2023/09/21 12:04:42;;;;;;;0.00;0.00;;;27.60;83.90;;;;;;5090470;28;20194;-66
2023/09/21 12:07:11;;;;;;;0.00;0.00;;;27.70;84.20;;;;;;5091677;28;20184;-66
2023/09/21 12:09:40;;;;;;;0.00;0.00;;;27.60;81.70;;;;;;5090949;28;20170;-66
2023/09/21 12:12:08;;;;;;;0.10;0.03;;;27.60;81.80;;;;;;5091670;28;20184;-67
2023/09/21 12:14:34;;;;;;;0.00;0.00;;;27.60;82.40;;;;;;5091658;28;20168;-67
2023/09/21 12:17:09;;;;;;;0.00;0.00;;;27.60;81.60;;;;;;5091390;28;20207;-66
2023/09/21 12:19:36;;;;;;;0.00;0.00;;;27.60;81.70;;;;;;5091530;28;20178;-67
2023/09/21 12:22:03;;;;;;;0.00;0.00;;;27.70;80.80;;;;;;5091515;28;20168;-66
2023/09/21 12:24:29;;;;;;;0.00;0.00;;;27.80;82.40;;;;;;5091458;28;20184;-66
2023/09/21 12:26:55;;;;;;;0.00;0.00;;;27.80;82.20;;;;;;5091393;28;20168;-66
2023/09/21 12:29:22;;;;;;;0.00;0.00;;;27.90;80.20;;;;;;5091344;28;20179;-66
2023/09/21 12:31:48;;;;;;;0.00;0.00;;;28.00;80.10;;;;;;5089830;28;20263;-66
2023/09/21 12:34:14;;;;;;;0.00;0.00;;;28.10;79.30;;;;;;5091535;28;20263;-67
2023/09/21 12:36:40;;;;;;;0.00;0.00;;;28.20;79.30;;;;;;5090974;28;20200;-66
2023/09/21 12:39:09;;;;;;;0.00;0.00;;;28.30;78.80;;;;;;5091390;28;20217;-66
2023/09/21 12:41:37;;;;;;;0.00;0.00;;;28.40;79.40;;;;;;5091269;28;20225;-67
2023/09/21 12:44:02;;;;;;;0.00;0.00;;;28.40;79.90;;;;;;5090598;28;20639;-66
2023/09/21 12:46:29;;;;;;;0.00;0.00;;;28.30;79.70;;;;;;5091172;28;20183;-67
2023/09/21 12:48:55;;;;;;;0.00;0.00;;;28.20;79.00;;;;;;5091121;28;20639;-66